createdAt,value
2019-05-20T00:00:33.370Z,28.55
2019-05-20T00:03:02.940Z,28.02
2019-05-20T00:05:32.547Z,26.70
2019-05-20T00:08:01.993Z,26.10
2019-05-20T00:10:31.593Z,25.08
2019-05-20T00:13:01.099Z,28.87
2019-05-20T00:15:30.593Z,27.07
2019-05-20T00:18:00.056Z,26.00
2019-05-20T00:20:29.612Z,28.57
2019-05-20T00:22:59.142Z,27.33
2019-05-20T00:25:28.603Z,27.80
2019-05-20T00:27:58.137Z,26.33
2019-05-20T00:30:27.625Z,25.43
2019-05-20T00:32:57.155Z,26.50
2019-05-20T00:35:26.667Z,26.52
2019-05-20T00:37:57.104Z,27.87
2019-05-20T00:40:27.047Z,27.15
2019-05-20T00:42:56.607Z,28.52
2019-05-20T00:45:27.435Z,27.27
2019-05-20T00:47:56.989Z,26.37
2019-05-20T00:50:26.469Z,26.17
2019-05-20T00:52:55.937Z,26.25
2019-05-20T00:55:28.521Z,26.93
2019-05-20T00:57:57.967Z,26.12
2019-05-20T01:00:29.206Z,26.73
2019-05-20T01:02:58.734Z,28.02
2019-05-20T01:05:28.254Z,28.02
2019-05-20T01:07:57.769Z,26.93
2019-05-20T01:10:27.398Z,26.35
2019-05-20T01:12:56.875Z,28.23
2019-05-20T01:15:26.555Z,29.48
2019-05-20T01:17:56.153Z,27.10
2019-05-20T01:20:25.732Z,28.70
2019-05-20T01:22:55.202Z,28.97
2019-05-20T01:25:24.683Z,29.20
2019-05-20T01:27:54.191Z,31.50
2019-05-20T01:30:23.882Z,27.13
2019-05-20T01:32:53.361Z,28.53
2019-05-20T01:35:22.826Z,30.85
2019-05-20T01:37:52.350Z,31.30
2019-05-20T01:40:21.918Z,30.00
2019-05-20T01:42:52.486Z,32.83
2019-05-20T01:45:22.167Z,28.85
2019-05-20T01:47:51.727Z,30.30
2019-05-20T01:50:21.182Z,31.40
2019-05-20T01:52:50.666Z,28.27
2019-05-20T01:55:20.299Z,27.77
2019-05-20T01:57:49.913Z,30.75
2019-05-20T02:00:19.575Z,30.27
2019-05-20T02:02:49.178Z,28.10
2019-05-20T02:05:18.684Z,29.02
2019-05-20T02:07:48.162Z,29.43
2019-05-20T02:10:19.016Z,28.23
2019-05-20T02:12:48.478Z,31.05
2019-05-20T02:15:22.078Z,30.15
2019-05-20T02:17:51.535Z,29.55
2019-05-20T02:20:21.086Z,31.62
2019-05-20T02:22:50.586Z,31.90
2019-05-20T02:25:20.296Z,31.93
2019-05-20T02:27:49.709Z,28.85
2019-05-20T02:30:19.394Z,28.80
2019-05-20T02:32:48.867Z,28.52
2019-05-20T02:35:18.429Z,30.57
2019-05-20T02:37:48.026Z,30.27
2019-05-20T02:40:17.785Z,29.48
2019-05-20T02:42:48.458Z,31.20
2019-05-20T02:45:17.964Z,31.70
2019-05-20T02:47:47.454Z,27.50
2019-05-20T02:50:17.175Z,29.35
2019-05-20T02:52:46.648Z,29.35
2019-05-20T02:55:16.164Z,29.32
2019-05-20T02:57:45.633Z,30.82
2019-05-20T03:00:16.280Z,30.10
2019-05-20T03:02:45.765Z,28.02
2019-05-20T03:05:15.414Z,29.35
2019-05-20T03:07:44.913Z,27.57
2019-05-20T03:10:16.002Z,26.25
2019-05-20T03:12:45.507Z,29.52
2019-05-20T03:15:15.236Z,26.93
2019-05-20T03:17:44.755Z,26.40
2019-05-20T03:20:15.236Z,28.38
2019-05-20T03:22:44.777Z,27.50
2019-05-20T03:25:14.552Z,26.87
2019-05-20T03:27:44.052Z,29.33
2019-05-20T03:30:13.680Z,29.63
2019-05-20T03:32:43.212Z,29.20
2019-05-20T03:35:14.300Z,27.52
2019-05-20T03:37:43.795Z,29.67
2019-05-20T03:40:13.459Z,27.58
2019-05-20T03:42:42.923Z,28.42
2019-05-20T03:45:13.515Z,27.75
2019-05-20T03:47:43.068Z,27.37
2019-05-20T03:50:12.903Z,29.80
2019-05-20T03:52:42.419Z,30.33
2019-05-20T03:55:12.250Z,27.10
2019-05-20T03:57:41.678Z,31.17
2019-05-20T04:00:11.714Z,27.60
2019-05-20T04:02:41.090Z,27.62
2019-05-20T04:05:10.738Z,28.23
2019-05-20T04:07:40.254Z,28.87
2019-05-20T04:10:09.888Z,28.02
2019-05-20T04:12:40.890Z,26.10
2019-05-20T04:15:10.460Z,28.42
2019-05-20T04:17:39.899Z,27.40
2019-05-20T04:20:09.579Z,28.35
2019-05-20T04:22:41.916Z,26.97
2019-05-20T04:25:11.485Z,27.25
2019-05-20T04:27:40.936Z,27.80
2019-05-20T04:30:10.515Z,28.07
2019-05-20T04:32:40.004Z,28.97
2019-05-20T04:35:21.667Z,29.52
2019-05-20T04:37:40.901Z,29.07
2019-05-20T04:40:10.529Z,27.62
2019-05-20T04:42:40.111Z,27.48
2019-05-20T04:45:10.257Z,29.25
2019-05-20T04:47:39.747Z,28.17
2019-05-20T04:50:09.803Z,27.30
2019-05-20T04:52:39.419Z,27.20
2019-05-20T04:55:08.849Z,29.37
2019-05-20T04:57:38.352Z,30.50
2019-05-20T05:00:09.462Z,30.23
2019-05-20T05:02:43.149Z,28.42
2019-05-20T05:05:10.506Z,28.65
2019-05-20T05:07:40.132Z,28.60
2019-05-20T05:10:10.357Z,29.42
2019-05-20T05:12:40.187Z,29.07
2019-05-20T05:15:10.277Z,29.27
2019-05-20T05:17:40.937Z,28.42
2019-05-20T05:20:18.039Z,29.37
2019-05-20T05:22:42.182Z,29.70
2019-05-20T05:25:11.881Z,29.25
2019-05-20T05:27:41.380Z,29.13
2019-05-20T05:30:11.174Z,29.45
2019-05-20T05:32:44.761Z,29.37
2019-05-20T05:35:16.838Z,29.60
2019-05-20T05:37:46.455Z,28.35
2019-05-20T05:40:19.252Z,27.70
2019-05-20T05:42:48.788Z,26.25
2019-05-20T05:45:21.381Z,28.47
2019-05-20T05:47:53.724Z,30.20
2019-05-20T05:50:25.023Z,28.73
2019-05-20T05:52:54.647Z,29.23
2019-05-20T05:55:24.516Z,29.50
2019-05-20T05:57:54.283Z,31.47
2019-05-20T06:02:54.266Z,31.02
2019-05-20T06:05:23.839Z,28.70
2019-05-20T06:07:53.462Z,29.03
2019-05-20T06:10:23.091Z,29.32
2019-05-20T06:12:52.624Z,29.50
2019-05-20T06:15:24.022Z,28.85
2019-05-20T06:17:53.676Z,30.37
2019-05-20T06:20:23.151Z,29.02
2019-05-20T06:22:52.644Z,28.42
2019-05-20T06:25:22.388Z,32.48
2019-05-20T06:27:51.928Z,29.85
2019-05-20T06:30:24.489Z,32.28
2019-05-20T06:32:54.095Z,32.60
2019-05-20T06:35:23.597Z,32.95
2019-05-20T06:37:57.928Z,31.20
2019-05-20T06:40:27.494Z,29.75
2019-05-20T06:42:57.111Z,30.72
2019-05-20T06:45:26.575Z,28.55
2019-05-20T06:47:58.157Z,30.53
2019-05-20T06:50:29.732Z,30.15
2019-05-20T06:52:58.877Z,27.60
2019-05-20T06:55:28.458Z,31.73
2019-05-20T06:57:59.665Z,28.47
2019-05-20T07:00:39.535Z,26.68
2019-05-20T07:03:09.084Z,27.33
2019-05-20T07:05:38.738Z,29.20
2019-05-20T07:08:08.333Z,32.37
2019-05-20T07:10:37.901Z,30.12
2019-05-20T07:13:08.467Z,33.48
2019-05-20T07:15:37.944Z,34.18
2019-05-20T07:18:07.573Z,35.60
2019-05-20T07:20:37.183Z,35.45
2019-05-20T07:23:06.987Z,36.97
2019-05-20T07:25:36.489Z,34.90
2019-05-20T07:28:06.456Z,35.10
2019-05-20T07:30:41.889Z,37.78
2019-05-20T07:33:12.118Z,38.70
2019-05-20T07:35:41.646Z,38.33
2019-05-20T07:38:11.174Z,37.85
2019-05-20T07:40:40.677Z,35.68
2019-05-20T07:43:10.338Z,36.17
2019-05-20T07:45:40.023Z,35.25
2019-05-20T07:48:10.067Z,34.10
2019-05-20T07:50:41.179Z,33.92
2019-05-20T07:53:12.334Z,36.60
2019-05-20T07:55:47.799Z,36.53
2019-05-20T07:58:21.974Z,36.35
2019-05-20T08:00:51.524Z,36.98
2019-05-20T08:03:21.982Z,37.53
2019-05-20T08:05:51.434Z,37.95
2019-05-20T08:08:21.180Z,38.70
2019-05-20T08:10:50.706Z,41.23
2019-05-20T08:13:20.290Z,39.03
2019-05-20T08:15:49.815Z,39.58
2019-05-20T08:18:20.255Z,34.53
2019-05-20T08:20:49.950Z,38.15
2019-05-20T08:23:19.535Z,40.43
2019-05-20T08:25:49.057Z,37.42
2019-05-20T08:28:18.588Z,36.67
2019-05-20T08:30:48.226Z,37.67
2019-05-20T08:33:17.810Z,39.97
2019-05-20T08:35:47.234Z,40.03
2019-05-20T08:38:16.917Z,38.98
2019-05-20T08:40:48.735Z,40.23
2019-05-20T08:43:17.581Z,41.42
2019-05-20T08:45:47.208Z,42.10
2019-05-20T08:48:16.895Z,42.87
2019-05-20T08:50:46.655Z,40.60
2019-05-20T08:53:17.709Z,42.20
2019-05-20T08:55:47.274Z,39.98
2019-05-20T08:58:16.854Z,39.73
2019-05-20T09:00:46.334Z,40.28
2019-05-20T09:03:15.834Z,39.95
2019-05-20T09:05:45.357Z,37.55
2019-05-20T09:08:16.449Z,35.90
2019-05-20T09:10:47.581Z,38.83
2019-05-20T09:13:17.078Z,38.67
2019-05-20T09:15:46.624Z,37.50
2019-05-20T09:18:17.241Z,38.23
2019-05-20T09:20:46.672Z,39.95
2019-05-20T09:23:16.264Z,39.20
2019-05-20T09:25:45.826Z,37.60
2019-05-20T09:28:15.452Z,43.37
2019-05-20T09:30:45.153Z,38.88
2019-05-20T09:33:17.284Z,39.80
2019-05-20T09:35:46.936Z,38.65
2019-05-20T09:38:20.696Z,39.77
2019-05-20T09:40:49.272Z,39.63
2019-05-20T09:43:18.893Z,36.60
2019-05-20T09:46:04.147Z,38.00
2019-05-20T09:48:25.052Z,37.38
2019-05-20T09:50:50.750Z,39.08
2019-05-20T09:53:20.363Z,39.33
2019-05-20T09:55:49.862Z,35.78
2019-05-20T09:58:21.533Z,40.80
2019-05-20T10:00:50.698Z,40.38
2019-05-20T10:03:20.186Z,38.00
2019-05-20T10:05:49.687Z,38.50
2019-05-20T10:08:36.963Z,42.03
2019-05-20T10:10:59.711Z,39.60
2019-05-20T10:13:28.560Z,39.88
2019-05-20T10:15:58.154Z,39.23
2019-05-20T10:18:37.156Z,37.10
2019-05-20T10:20:58.993Z,35.52
2019-05-20T10:23:28.506Z,28.47
2019-05-20T10:25:58.198Z,30.70
2019-05-20T10:28:27.727Z,27.37
2019-05-20T10:30:57.286Z,28.25
2019-05-20T10:33:26.768Z,28.70
2019-05-20T10:35:56.315Z,28.35
2019-05-20T10:38:26.094Z,28.57
2019-05-20T10:40:55.708Z,30.05
2019-05-20T10:43:25.235Z,30.95
2019-05-20T10:45:54.804Z,31.45
2019-05-20T10:48:24.334Z,34.83
2019-05-20T10:50:53.968Z,31.85
2019-05-20T10:53:23.550Z,33.10
2019-05-20T10:55:53.205Z,33.05
2019-05-20T10:58:22.737Z,36.97
2019-05-20T11:01:02.627Z,33.20
2019-05-20T11:03:23.343Z,35.35
2019-05-20T11:05:52.922Z,33.60
2019-05-20T11:08:25.539Z,33.53
2019-05-20T11:10:55.020Z,30.37
2019-05-20T11:13:24.549Z,31.33
2019-05-20T11:15:54.148Z,30.43
2019-05-20T11:18:23.715Z,28.87
2019-05-20T11:20:53.237Z,25.85
2019-05-20T11:23:22.693Z,28.67
2019-05-20T11:25:52.189Z,29.25
2019-05-20T11:28:21.662Z,31.77
2019-05-20T11:30:51.153Z,30.20
2019-05-20T11:33:20.747Z,31.63
2019-05-20T11:35:50.718Z,30.48
2019-05-20T11:38:20.258Z,32.78
2019-05-20T11:40:49.810Z,30.75
2019-05-20T11:43:19.379Z,30.23
2019-05-20T11:45:48.837Z,27.05
2019-05-20T11:48:18.327Z,28.87
2019-05-20T11:50:47.799Z,30.30
2019-05-20T11:53:17.416Z,30.03
2019-05-20T11:55:46.887Z,32.17
2019-05-20T11:58:18.014Z,32.93
2019-05-20T12:00:47.498Z,33.28
2019-05-20T12:03:17.561Z,31.77
2019-05-20T12:05:48.324Z,29.27
2019-05-20T12:08:17.915Z,29.50
2019-05-20T12:10:49.095Z,30.02
2019-05-20T12:13:18.581Z,28.35
2019-05-20T12:15:49.690Z,31.77
2019-05-20T12:18:19.263Z,29.15
2019-05-20T12:20:48.696Z,30.82
2019-05-20T12:23:18.211Z,29.65
2019-05-20T12:25:47.768Z,27.93
2019-05-20T12:28:17.243Z,28.25
2019-05-20T12:30:47.651Z,29.67
2019-05-20T12:33:19.299Z,29.20
2019-05-20T12:35:48.287Z,31.82
2019-05-20T12:38:17.925Z,30.87
2019-05-20T12:40:47.459Z,39.18
2019-05-20T12:43:16.983Z,39.35
2019-05-20T12:45:46.562Z,40.67
2019-05-20T12:48:16.184Z,42.30
2019-05-20T12:50:49.971Z,44.27
2019-05-20T12:53:19.580Z,43.20
2019-05-20T12:55:49.129Z,45.73
2019-05-20T12:58:20.256Z,45.60
2019-05-20T13:00:50.281Z,46.63
2019-05-20T13:03:20.106Z,49.33
2019-05-20T13:05:49.704Z,48.23
2019-05-20T13:08:19.206Z,50.43
2019-05-20T13:10:48.767Z,47.13
2019-05-20T13:13:18.323Z,49.13
2019-05-20T13:15:49.456Z,52.65
2019-05-20T13:18:19.046Z,52.47
2019-05-20T13:20:48.502Z,50.17
2019-05-20T13:23:18.020Z,49.33
2019-05-20T13:25:47.460Z,50.52
2019-05-20T13:28:16.897Z,51.15
2019-05-20T13:30:46.910Z,47.10
2019-05-20T13:35:45.016Z,48.90
2019-05-20T13:38:14.626Z,48.73
2019-05-20T13:40:47.058Z,50.65
2019-05-20T13:43:15.587Z,48.02
2019-05-20T13:45:47.940Z,45.90
2019-05-20T13:48:16.201Z,45.30
2019-05-20T13:50:45.661Z,44.35
2019-05-20T13:53:15.242Z,43.30
2019-05-20T13:55:44.689Z,47.48
2019-05-20T13:58:14.307Z,46.92
2019-05-20T14:00:43.893Z,45.25
2019-05-20T14:03:13.348Z,45.03
2019-05-20T14:05:42.856Z,46.92
2019-05-20T14:08:12.551Z,43.23
2019-05-20T14:10:42.773Z,47.23
2019-05-20T14:13:12.477Z,46.98
2019-05-20T14:15:42.026Z,43.85
2019-05-20T14:18:11.595Z,43.47
2019-05-20T14:20:41.296Z,45.90
2019-05-20T14:23:10.797Z,46.80
2019-05-20T14:25:41.319Z,47.58
2019-05-20T14:28:10.740Z,48.67
2019-05-20T14:30:41.855Z,50.30
2019-05-20T14:33:11.567Z,46.98
2019-05-20T14:35:42.684Z,47.62
2019-05-20T14:38:12.314Z,47.00
2019-05-20T14:40:41.788Z,47.70
2019-05-20T14:43:11.342Z,45.28
2019-05-20T14:45:40.849Z,44.27
2019-05-20T14:48:10.527Z,44.33
2019-05-20T14:50:40.167Z,46.30
2019-05-20T14:53:09.642Z,45.20
2019-05-20T14:55:42.712Z,43.48
2019-05-20T14:58:10.430Z,43.70
2019-05-20T15:00:40.051Z,40.63
2019-05-20T15:03:09.447Z,40.05
2019-05-20T15:05:39.279Z,41.50
2019-05-20T15:08:09.227Z,39.55
2019-05-20T15:10:38.892Z,38.10
2019-05-20T15:13:08.503Z,36.25
2019-05-20T15:15:38.157Z,33.35
2019-05-20T15:18:07.613Z,33.53
2019-05-20T15:20:37.119Z,32.58
2019-05-20T15:23:07.929Z,31.20
2019-05-20T15:28:06.461Z,29.02
2019-05-20T15:30:36.116Z,25.52
2019-05-20T15:33:05.597Z,26.07
2019-05-20T15:35:35.409Z,25.43
2019-05-20T15:38:04.916Z,24.20
2019-05-20T15:40:34.504Z,23.25
2019-05-20T15:43:04.028Z,23.63
2019-05-20T15:45:33.698Z,24.25
2019-05-20T15:48:03.222Z,21.87
2019-05-20T15:50:32.725Z,23.20
2019-05-20T15:53:02.323Z,23.27
2019-05-20T15:55:31.803Z,22.60
2019-05-20T15:58:01.315Z,22.20
2019-05-20T16:00:33.794Z,24.12
2019-05-20T16:03:03.394Z,23.85
2019-05-20T16:05:33.365Z,25.00
2019-05-20T16:08:03.132Z,24.35
2019-05-20T16:10:32.595Z,26.35
2019-05-20T16:13:02.149Z,26.45
2019-05-20T16:15:31.676Z,25.25
2019-05-20T16:18:01.254Z,28.85
2019-05-20T16:20:31.242Z,28.93
2019-05-20T16:23:00.743Z,29.90
2019-05-20T16:25:30.323Z,29.72
2019-05-20T16:28:00.379Z,33.43
2019-05-20T16:30:30.187Z,33.35
2019-05-20T16:32:59.683Z,31.30
2019-05-20T16:35:29.264Z,31.12
2019-05-20T16:37:58.756Z,27.30
2019-05-20T16:40:29.220Z,27.48
2019-05-20T16:42:58.786Z,28.60
2019-05-20T16:45:29.949Z,28.85
2019-05-20T16:47:59.513Z,28.70
2019-05-20T16:50:29.154Z,27.98
2019-05-20T16:52:58.652Z,26.90
2019-05-20T16:55:28.246Z,28.25
2019-05-20T16:57:57.718Z,28.80
2019-05-20T17:00:31.784Z,28.45
2019-05-20T17:03:01.130Z,28.27
2019-05-20T17:05:30.688Z,27.80
2019-05-20T17:08:00.214Z,27.50
2019-05-20T17:10:29.717Z,29.52
2019-05-20T17:12:59.323Z,29.72
2019-05-20T17:15:28.969Z,27.80
2019-05-20T17:17:58.437Z,28.87
2019-05-20T17:20:28.331Z,30.37
2019-05-20T17:22:57.759Z,32.00
2019-05-20T17:25:27.390Z,34.03
2019-05-20T17:27:56.900Z,36.27
2019-05-20T17:30:26.379Z,35.78
2019-05-20T17:32:55.914Z,37.80
2019-05-20T17:35:28.696Z,36.58
2019-05-20T17:37:58.397Z,37.42
2019-05-20T17:40:28.054Z,37.73
2019-05-20T17:42:57.722Z,37.33
2019-05-20T17:45:27.345Z,37.85
2019-05-20T17:47:56.913Z,35.67
2019-05-20T17:50:28.252Z,37.78
2019-05-20T17:52:58.531Z,38.95
2019-05-20T17:55:29.530Z,35.05
2019-05-20T17:58:00.457Z,37.05
2019-05-20T18:00:29.987Z,38.73
2019-05-20T18:02:59.719Z,34.50
2019-05-20T18:05:29.232Z,36.60
2019-05-20T18:07:58.785Z,36.73
2019-05-20T18:10:28.322Z,36.00
2019-05-20T18:12:57.827Z,36.00
2019-05-20T18:15:28.942Z,36.30
2019-05-20T18:17:58.447Z,35.63
2019-05-20T18:20:27.959Z,35.50
2019-05-20T18:22:57.468Z,35.23
2019-05-20T18:25:26.921Z,35.20
2019-05-20T18:27:56.663Z,35.78
2019-05-20T18:30:26.389Z,33.00
2019-05-20T18:32:55.947Z,31.63
2019-05-20T18:35:25.417Z,32.80
2019-05-20T18:37:56.061Z,33.95
2019-05-20T18:40:25.680Z,31.82
2019-05-20T18:42:55.287Z,29.80
2019-05-20T18:45:24.905Z,31.33
2019-05-20T18:47:54.444Z,29.98
2019-05-20T18:50:23.945Z,28.45
2019-05-20T18:52:53.477Z,26.60
2019-05-20T18:55:22.921Z,23.47
2019-05-20T18:57:52.816Z,19.67
2019-05-20T19:00:22.765Z,18.10
2019-05-20T19:02:52.654Z,18.60
2019-05-20T19:05:25.053Z,17.73
2019-05-20T19:07:54.750Z,17.65
2019-05-20T19:10:24.599Z,17.12
2019-05-20T19:12:55.854Z,18.20
2019-05-20T19:15:25.497Z,16.82
2019-05-20T19:17:55.082Z,18.10
2019-05-20T19:20:24.586Z,18.85
2019-05-20T19:22:54.182Z,18.20
2019-05-20T19:25:36.918Z,17.25
2019-05-20T19:27:54.883Z,17.98
2019-05-20T19:30:24.442Z,18.12
2019-05-20T19:32:53.979Z,21.53
2019-05-20T19:35:23.572Z,19.90
2019-05-20T19:37:53.118Z,19.00
2019-05-20T19:40:22.832Z,24.12
2019-05-20T19:42:52.378Z,24.23
2019-05-20T19:45:21.912Z,25.05
2019-05-20T19:47:51.380Z,30.75
2019-05-20T19:50:21.534Z,32.10
2019-05-20T19:52:51.213Z,34.20
2019-05-20T19:55:20.862Z,37.48
2019-05-20T19:57:50.372Z,37.93
2019-05-20T20:00:20.353Z,39.35
2019-05-20T20:02:49.807Z,36.73
2019-05-20T20:05:19.401Z,40.08
2019-05-20T20:07:48.927Z,41.97
2019-05-20T20:10:18.557Z,40.67
2019-05-20T20:12:49.646Z,40.48
2019-05-20T20:15:20.131Z,41.05
2019-05-20T20:17:49.628Z,40.15
2019-05-20T20:20:19.106Z,41.00
2019-05-20T20:22:48.510Z,39.05
2019-05-20T20:25:18.093Z,37.60
2019-05-20T20:30:39.122Z,33.83
2019-05-20T20:33:08.632Z,35.95
2019-05-20T20:35:38.557Z,35.90
2019-05-20T20:38:08.192Z,35.98
2019-05-20T20:40:40.284Z,33.65
2019-05-20T20:43:10.931Z,34.58
2019-05-20T20:45:40.923Z,33.63
2019-05-20T20:48:10.420Z,35.20
2019-05-20T20:50:39.925Z,33.02
2019-05-20T20:53:09.421Z,31.35
2019-05-20T20:55:40.576Z,31.73
2019-05-20T20:58:10.173Z,32.43
2019-05-20T21:00:39.733Z,27.40
2019-05-20T21:03:09.298Z,23.70
2019-05-20T21:05:38.880Z,22.80
2019-05-20T21:08:08.449Z,19.87
2019-05-20T21:10:38.049Z,18.98
2019-05-20T21:13:07.778Z,19.40
2019-05-20T21:15:37.391Z,18.77
2019-05-20T21:18:07.172Z,18.00
2019-05-20T21:20:36.834Z,20.30
2019-05-20T21:23:06.423Z,19.42
2019-05-20T21:25:35.853Z,20.45
2019-05-20T21:28:05.386Z,19.50
2019-05-20T21:30:34.966Z,20.88
2019-05-20T21:33:09.876Z,20.90
2019-05-20T21:35:40.681Z,22.82
2019-05-20T21:38:10.232Z,22.57
2019-05-20T21:40:39.918Z,22.22
2019-05-20T21:43:09.521Z,22.20
2019-05-20T21:45:39.167Z,26.80
2019-05-20T21:48:08.727Z,27.82
2019-05-20T21:50:38.463Z,28.52
2019-05-20T21:53:08.075Z,25.67
2019-05-20T21:55:37.671Z,23.62
2019-05-20T21:58:07.367Z,21.00
2019-05-20T22:00:38.620Z,19.00
2019-05-20T22:03:22.193Z,19.20
2019-05-20T22:05:41.370Z,19.02
2019-05-20T22:08:11.025Z,20.45
2019-05-20T22:10:40.553Z,19.50
2019-05-20T22:13:11.635Z,21.23
2019-05-20T22:15:41.393Z,19.10
2019-05-20T22:18:10.930Z,20.67
2019-05-20T22:20:40.493Z,19.80
2019-05-20T22:23:23.878Z,22.23
2019-05-20T22:25:53.497Z,22.87
2019-05-20T22:28:23.365Z,23.83
2019-05-20T22:30:53.018Z,24.02
2019-05-20T22:33:22.481Z,24.37
2019-05-20T22:35:51.994Z,25.95
2019-05-20T22:38:21.452Z,27.10
2019-05-20T22:40:51.048Z,25.02
2019-05-20T22:43:22.147Z,23.47
2019-05-20T22:45:51.929Z,22.05
2019-05-20T22:48:21.580Z,23.30
2019-05-20T22:50:51.170Z,24.12
2019-05-20T22:53:20.728Z,23.77
2019-05-20T22:55:50.362Z,21.87
2019-05-20T22:58:20.002Z,23.77
2019-05-20T23:00:49.586Z,23.02
2019-05-20T23:03:19.261Z,22.97
2019-05-20T23:05:48.750Z,21.85
2019-05-20T23:08:18.400Z,21.00
2019-05-20T23:10:47.951Z,21.15
2019-05-20T23:13:17.444Z,21.50
2019-05-20T23:15:46.986Z,22.27
2019-05-20T23:18:16.479Z,21.97
2019-05-20T23:20:46.088Z,22.55
2019-05-20T23:23:15.700Z,23.38
2019-05-20T23:25:45.157Z,23.55
2019-05-20T23:28:14.725Z,27.67
2019-05-20T23:30:44.231Z,26.23
2019-05-20T23:33:13.858Z,26.30
2019-05-20T23:35:43.450Z,25.80
2019-05-20T23:38:13.524Z,27.20
2019-05-20T23:40:43.048Z,28.40
2019-05-20T23:43:13.745Z,25.00
2019-05-20T23:45:43.730Z,29.85
2019-05-20T23:48:13.409Z,29.50
2019-05-20T23:50:42.885Z,27.95
2019-05-20T23:53:12.469Z,30.30
2019-05-20T23:55:42.077Z,29.77
2019-05-20T23:58:11.651Z,30.27
